createdAt,value
2019-04-25T00:00:51.329Z,3.40
2019-04-25T00:01:54.204Z,3.33
2019-04-25T00:02:56.974Z,3.50
2019-04-25T00:03:59.671Z,4.07
2019-04-25T00:05:03.245Z,3.53
2019-04-25T00:06:06.177Z,3.40
2019-04-25T00:07:09.224Z,3.20
2019-04-25T00:08:11.967Z,3.40
2019-04-25T00:09:14.692Z,3.20
2019-04-25T00:10:17.412Z,3.13
2019-04-25T00:11:21.514Z,3.17
2019-04-25T00:12:24.347Z,3.50
2019-04-25T00:13:27.664Z,3.30
2019-04-25T00:14:31.463Z,3.40
2019-04-25T00:15:35.678Z,3.40
2019-04-25T00:16:38.711Z,2.83
2019-04-25T00:17:43.364Z,3.20
2019-04-25T00:18:47.184Z,2.93
2019-04-25T00:19:51.077Z,3.30
2019-04-25T00:20:54.335Z,3.23
2019-04-25T00:21:57.055Z,3.27
2019-04-25T00:22:59.819Z,2.90
2019-04-25T00:24:02.753Z,2.80
2019-04-25T00:25:15.187Z,3.00
2019-04-25T00:26:11.307Z,3.20
2019-04-25T00:27:14.183Z,3.37
2019-04-25T00:28:16.938Z,2.83
2019-04-25T00:29:22.022Z,3.80
2019-04-25T00:30:24.926Z,3.40
2019-04-25T00:31:27.639Z,3.40
2019-04-25T00:32:31.583Z,3.03
2019-04-25T00:33:34.409Z,3.10
2019-04-25T00:34:37.124Z,3.27
2019-04-25T00:35:42.298Z,3.20
2019-04-25T00:36:45.580Z,3.00
2019-04-25T00:37:48.419Z,3.63
2019-04-25T00:38:52.324Z,3.17
2019-04-25T00:39:55.630Z,3.23
2019-04-25T00:40:58.343Z,2.87
2019-04-25T00:42:02.315Z,2.83
2019-04-25T00:43:05.283Z,3.40
2019-04-25T00:44:08.044Z,3.07
2019-04-25T00:45:11.872Z,3.10
2019-04-25T00:46:15.092Z,3.30
2019-04-25T00:47:18.099Z,3.57
2019-04-25T00:48:22.210Z,3.07
2019-04-25T00:49:25.380Z,2.97
2019-04-25T00:50:28.120Z,3.23
2019-04-25T00:51:31.809Z,2.93
2019-04-25T00:52:34.660Z,2.73
2019-04-25T00:53:37.403Z,3.73
2019-04-25T00:54:41.420Z,2.77
2019-04-25T00:55:44.464Z,3.30
2019-04-25T00:56:48.265Z,3.00
2019-04-25T00:57:52.555Z,3.30
2019-04-25T00:58:55.615Z,3.00
2019-04-25T00:59:58.324Z,3.00
2019-04-25T01:01:02.054Z,3.40
2019-04-25T01:02:07.489Z,3.30
2019-04-25T01:03:09.503Z,3.17
2019-04-25T01:04:12.404Z,3.20
2019-04-25T01:05:15.117Z,3.07
2019-04-25T01:06:17.835Z,2.77
2019-04-25T01:07:22.245Z,2.67
2019-04-25T01:08:24.895Z,3.00
2019-04-25T01:09:27.644Z,2.50
2019-04-25T01:10:31.574Z,3.20
2019-04-25T01:11:34.485Z,2.83
2019-04-25T01:12:37.198Z,2.70
2019-04-25T01:13:39.919Z,2.97
2019-04-25T01:14:42.675Z,3.00
2019-04-25T01:15:46.358Z,2.80
2019-04-25T01:16:49.127Z,2.70
2019-04-25T01:17:52.611Z,2.80
2019-04-25T01:18:56.244Z,3.40
2019-04-25T01:19:58.989Z,3.17
2019-04-25T01:21:01.683Z,3.13
2019-04-25T01:22:04.404Z,2.60
2019-04-25T01:23:07.116Z,2.50
2019-04-25T01:24:09.908Z,2.70
2019-04-25T01:25:13.836Z,2.80
2019-04-25T01:26:17.167Z,2.97
2019-04-25T01:27:19.886Z,2.30
2019-04-25T01:28:24.179Z,2.90
2019-04-25T01:29:27.155Z,2.60
2019-04-25T01:30:29.903Z,3.10
2019-04-25T01:31:33.589Z,2.77
2019-04-25T01:32:36.443Z,2.50
2019-04-25T01:33:39.504Z,2.73
2019-04-25T01:34:44.143Z,2.90
2019-04-25T01:35:47.334Z,2.90
2019-04-25T01:36:50.755Z,2.90
2019-04-25T01:37:54.857Z,2.60
2019-04-25T01:38:58.826Z,3.20
2019-04-25T01:40:01.943Z,2.80
2019-04-25T01:41:04.659Z,2.57
2019-04-25T01:42:07.720Z,2.53
2019-04-25T01:43:10.437Z,2.40
2019-04-25T01:44:14.336Z,2.13
2019-04-25T01:45:17.791Z,3.10
2019-04-25T01:46:20.643Z,2.70
2019-04-25T01:47:23.984Z,2.77
2019-04-25T01:48:26.798Z,2.70
2019-04-25T01:49:29.487Z,2.80
2019-04-25T01:50:33.212Z,2.80
2019-04-25T01:51:36.583Z,2.70
2019-04-25T01:52:39.304Z,2.57
2019-04-25T01:53:42.022Z,3.00
2019-04-25T01:54:44.778Z,2.30
2019-04-25T01:55:55.941Z,3.13
2019-04-25T01:56:51.951Z,2.60
2019-04-25T01:57:55.181Z,2.80
2019-04-25T01:58:59.444Z,2.53
2019-04-25T02:00:04.005Z,2.67
2019-04-25T02:01:06.803Z,2.90
2019-04-25T02:02:09.656Z,2.43
2019-04-25T02:03:13.500Z,2.50
2019-04-25T02:04:16.319Z,2.80
2019-04-25T02:05:19.074Z,2.93
2019-04-25T02:06:23.184Z,2.73
2019-04-25T02:07:26.431Z,2.50
2019-04-25T02:08:29.148Z,2.80
2019-04-25T02:09:33.666Z,2.70
2019-04-25T02:10:36.589Z,2.33
2019-04-25T02:11:39.303Z,2.47
2019-04-25T02:12:43.555Z,2.43
2019-04-25T02:13:46.425Z,2.60
2019-04-25T02:14:50.252Z,2.63
2019-04-25T02:15:54.763Z,2.53
2019-04-25T02:16:58.363Z,2.70
2019-04-25T02:18:01.818Z,2.93
2019-04-25T02:19:04.968Z,2.80
2019-04-25T02:20:07.689Z,2.77
2019-04-25T02:21:10.451Z,2.67
2019-04-25T02:22:14.576Z,2.20
2019-04-25T02:23:17.397Z,2.77
2019-04-25T02:24:20.111Z,2.60
2019-04-25T02:25:23.011Z,2.40
2019-04-25T02:26:27.615Z,2.60
2019-04-25T02:27:30.332Z,2.10
2019-04-25T02:28:33.794Z,2.47
2019-04-25T02:29:37.056Z,2.37
2019-04-25T02:30:39.807Z,2.33
2019-04-25T02:31:44.798Z,2.50
2019-04-25T02:32:47.437Z,2.60
2019-04-25T02:33:51.152Z,2.37
2019-04-25T02:34:58.180Z,2.50
2019-04-25T02:36:00.986Z,2.23
2019-04-25T02:37:05.622Z,2.50
2019-04-25T02:38:08.883Z,2.20
2019-04-25T02:39:15.250Z,2.90
2019-04-25T02:40:18.540Z,2.53
2019-04-25T02:41:21.641Z,2.30
2019-04-25T02:42:24.793Z,2.20
2019-04-25T02:43:27.603Z,2.10
2019-04-25T02:44:30.380Z,2.27
2019-04-25T02:45:34.390Z,2.80
2019-04-25T02:46:37.439Z,2.47
2019-04-25T02:47:41.209Z,2.63
2019-04-25T02:48:44.228Z,2.47
2019-04-25T02:49:47.056Z,2.63
2019-04-25T02:50:49.801Z,2.60
2019-04-25T02:51:55.036Z,2.40
2019-04-25T02:52:58.303Z,2.17
2019-04-25T02:54:02.689Z,2.47
2019-04-25T02:55:10.521Z,2.37
2019-04-25T02:56:27.447Z,2.70
2019-04-25T02:57:15.680Z,2.23
2019-04-25T02:58:18.418Z,2.40
2019-04-25T02:59:21.461Z,2.50
2019-04-25T03:00:25.003Z,2.30
2019-04-25T03:01:29.028Z,2.30
2019-04-25T03:02:31.725Z,2.10
2019-04-25T03:03:34.802Z,2.53
2019-04-25T03:04:37.679Z,2.53
2019-04-25T03:05:40.438Z,2.00
2019-04-25T03:06:45.285Z,2.43
2019-04-25T03:07:47.517Z,2.20
2019-04-25T03:08:50.502Z,2.10
2019-04-25T03:09:54.778Z,2.23
2019-04-25T03:10:58.696Z,2.40
2019-04-25T03:12:02.016Z,2.63
2019-04-25T03:13:10.280Z,2.00
2019-04-25T03:14:10.412Z,2.10
2019-04-25T03:15:14.450Z,2.50
2019-04-25T03:16:17.465Z,2.10
2019-04-25T03:17:20.180Z,2.30
2019-04-25T03:18:24.797Z,2.17
2019-04-25T03:19:27.245Z,2.10
2019-04-25T03:20:29.958Z,2.30
2019-04-25T03:21:34.992Z,2.40
2019-04-25T03:22:37.401Z,2.17
2019-04-25T03:23:42.391Z,1.90
2019-04-25T03:24:45.843Z,2.00
2019-04-25T03:25:48.917Z,1.90
2019-04-25T03:26:53.129Z,2.60
2019-04-25T03:27:55.989Z,2.30
2019-04-25T03:28:58.842Z,2.37
2019-04-25T03:30:04.409Z,2.10
2019-04-25T03:31:15.251Z,2.07
2019-04-25T03:32:16.359Z,1.73
2019-04-25T03:33:19.559Z,2.13
2019-04-25T03:34:21.229Z,2.00
2019-04-25T03:35:23.944Z,2.10
2019-04-25T03:36:27.259Z,2.40
2019-04-25T03:37:30.016Z,2.07
2019-04-25T03:38:34.162Z,2.50
2019-04-25T03:39:36.956Z,1.93
2019-04-25T03:40:39.674Z,2.10
2019-04-25T03:41:43.883Z,2.40
2019-04-25T03:42:46.760Z,2.00
2019-04-25T03:43:49.479Z,1.73
2019-04-25T03:44:53.700Z,2.03
2019-04-25T03:45:56.623Z,2.30
2019-04-25T03:46:59.376Z,2.30
2019-04-25T03:48:04.982Z,2.60
2019-04-25T03:49:07.674Z,2.20
2019-04-25T03:50:10.483Z,2.00
2019-04-25T03:51:15.330Z,1.83
2019-04-25T03:52:17.576Z,2.50
2019-04-25T03:53:20.415Z,1.90
2019-04-25T03:54:23.527Z,2.30
2019-04-25T03:55:26.356Z,2.03
2019-04-25T03:56:29.076Z,1.67
2019-04-25T03:57:33.142Z,2.70
2019-04-25T03:58:37.988Z,2.13
2019-04-25T03:59:41.458Z,2.10
2019-04-25T04:00:44.677Z,1.77
2019-04-25T04:01:47.575Z,2.33
2019-04-25T04:02:50.934Z,2.07
2019-04-25T04:03:53.808Z,1.83
2019-04-25T04:04:56.659Z,2.10
2019-04-25T04:05:59.375Z,1.90
2019-04-25T04:07:04.436Z,2.30
2019-04-25T04:08:07.593Z,2.07
2019-04-25T04:09:10.672Z,1.90
2019-04-25T04:10:15.098Z,2.00
2019-04-25T04:11:17.725Z,2.13
2019-04-25T04:12:20.488Z,1.93
2019-04-25T04:13:24.334Z,1.87
2019-04-25T04:14:27.215Z,2.10
2019-04-25T04:15:30.103Z,1.50
2019-04-25T04:16:34.293Z,1.97
2019-04-25T04:17:37.179Z,2.00
2019-04-25T04:18:39.904Z,1.93
2019-04-25T04:19:43.571Z,2.10
2019-04-25T04:20:46.960Z,2.00
2019-04-25T04:21:49.668Z,1.77
2019-04-25T04:22:53.295Z,1.90
2019-04-25T04:23:57.255Z,1.90
2019-04-25T04:25:00.128Z,1.93
2019-04-25T04:26:03.305Z,2.30
2019-04-25T04:27:07.912Z,2.10
2019-04-25T04:28:10.435Z,2.00
2019-04-25T04:29:14.133Z,1.90
2019-04-25T04:30:17.491Z,1.83
2019-04-25T04:31:20.208Z,1.83
2019-04-25T04:32:24.216Z,1.97
2019-04-25T04:33:32.265Z,1.73
2019-04-25T04:34:31.415Z,2.10
2019-04-25T04:35:34.135Z,2.30
2019-04-25T04:36:36.853Z,1.90
2019-04-25T04:37:39.575Z,2.03
2019-04-25T04:38:44.064Z,1.80
2019-04-25T04:39:47.028Z,2.00
2019-04-25T04:40:49.736Z,1.83
2019-04-25T04:41:53.558Z,1.93
2019-04-25T04:42:57.356Z,1.80
2019-04-25T04:44:00.108Z,1.67
2019-04-25T04:45:04.055Z,1.80
2019-04-25T04:46:06.773Z,1.73
2019-04-25T04:47:10.000Z,1.50
2019-04-25T04:48:14.500Z,1.80
2019-04-25T04:49:17.349Z,1.87
2019-04-25T04:50:20.068Z,2.13
2019-04-25T04:51:23.414Z,1.80
2019-04-25T04:52:26.213Z,1.70
2019-04-25T04:53:28.965Z,1.80
2019-04-25T04:54:31.688Z,1.53
2019-04-25T04:55:34.674Z,1.60
2019-04-25T04:56:37.392Z,2.10
2019-04-25T04:57:40.114Z,2.07
2019-04-25T04:58:43.181Z,1.70
2019-04-25T04:59:45.992Z,1.83
2019-04-25T05:00:48.718Z,1.90
2019-04-25T05:01:53.270Z,2.10
2019-04-25T05:02:56.084Z,1.40
2019-04-25T05:03:58.840Z,1.70
2019-04-25T05:05:01.563Z,1.73
2019-04-25T05:06:04.283Z,1.43
2019-04-25T05:07:06.999Z,1.80
2019-04-25T05:08:10.928Z,1.90
2019-04-25T05:09:15.536Z,1.50
2019-04-25T05:10:19.780Z,1.60
2019-04-25T05:11:23.896Z,1.80
2019-04-25T05:12:27.164Z,1.97
2019-04-25T05:13:29.880Z,2.00
2019-04-25T05:14:33.675Z,1.93
2019-04-25T05:15:36.560Z,1.40
2019-04-25T05:16:39.291Z,1.80
2019-04-25T05:17:41.996Z,2.00
2019-04-25T05:18:44.711Z,1.70
2019-04-25T05:19:47.463Z,1.57
2019-04-25T05:20:50.299Z,1.80
2019-04-25T05:21:54.846Z,1.87
2019-04-25T05:22:57.868Z,1.87
2019-04-25T05:24:01.261Z,1.57
2019-04-25T05:25:05.549Z,1.83
2019-04-25T05:26:09.831Z,1.70
2019-04-25T05:27:14.991Z,1.90
2019-04-25T05:28:18.200Z,1.70
2019-04-25T05:29:23.255Z,1.60
2019-04-25T05:30:26.523Z,1.90
2019-04-25T05:31:29.455Z,1.70
2019-04-25T05:32:32.345Z,1.90
2019-04-25T05:33:35.433Z,2.07
2019-04-25T05:34:38.163Z,1.20
2019-04-25T05:35:41.277Z,1.00
2019-04-25T05:36:44.000Z,0.80
2019-04-25T05:37:46.723Z,1.00
2019-04-25T05:38:49.441Z,0.90
2019-04-25T05:39:53.542Z,1.10
2019-04-25T05:40:56.324Z,1.00
2019-04-25T05:41:59.044Z,1.10
2019-04-25T05:43:03.712Z,0.80
2019-04-25T05:44:06.109Z,1.10
2019-04-25T05:45:08.864Z,1.40
2019-04-25T05:46:13.179Z,1.00
2019-04-25T05:47:17.456Z,1.10
2019-04-25T05:48:21.221Z,0.90
2019-04-25T05:49:25.169Z,0.93
2019-04-25T05:50:28.625Z,1.20
2019-04-25T05:51:33.787Z,1.20
2019-04-25T05:52:36.696Z,1.13
2019-04-25T05:53:39.417Z,0.87
2019-04-25T05:54:44.277Z,0.77
2019-04-25T05:55:46.783Z,1.43
2019-04-25T05:56:49.503Z,1.57
2019-04-25T05:57:53.599Z,1.07
2019-04-25T05:58:56.443Z,1.60
2019-04-25T05:59:59.208Z,1.20
2019-04-25T06:01:03.297Z,1.40
2019-04-25T06:02:06.157Z,1.40
2019-04-25T06:03:08.876Z,1.40
2019-04-25T06:04:11.593Z,1.50
2019-04-25T06:05:14.343Z,1.27
2019-04-25T06:06:17.580Z,1.17
2019-04-25T06:07:20.390Z,1.07
2019-04-25T06:08:25.454Z,1.30
2019-04-25T06:09:28.127Z,1.10
2019-04-25T06:10:30.887Z,1.70
2019-04-25T06:11:33.698Z,1.00
2019-04-25T06:12:36.579Z,1.40
2019-04-25T06:13:39.257Z,1.27
2019-04-25T06:14:43.405Z,1.10
2019-04-25T06:15:46.656Z,1.30
2019-04-25T06:16:49.372Z,1.10
2019-04-25T06:17:53.378Z,1.10
2019-04-25T06:18:56.440Z,1.30
2019-04-25T06:19:59.152Z,0.90
2019-04-25T06:21:03.112Z,1.23
2019-04-25T06:22:06.494Z,1.07
2019-04-25T06:23:09.268Z,1.40
2019-04-25T06:24:13.308Z,1.17
2019-04-25T06:25:16.538Z,1.20
2019-04-25T06:26:29.958Z,1.00
2019-04-25T06:27:24.377Z,1.20
2019-04-25T06:28:28.348Z,0.90
2019-04-25T06:29:31.060Z,1.20
2019-04-25T06:30:35.209Z,1.00
2019-04-25T06:31:38.067Z,1.20
2019-04-25T06:32:40.788Z,1.30
2019-04-25T06:33:43.837Z,1.00
2019-04-25T06:34:47.188Z,1.60
2019-04-25T06:35:49.939Z,1.17
2019-04-25T06:36:53.648Z,1.20
2019-04-25T06:37:56.420Z,0.90
2019-04-25T06:38:59.124Z,0.90
2019-04-25T06:40:03.449Z,1.20
2019-04-25T06:41:06.403Z,1.17
2019-04-25T06:42:10.158Z,1.60
2019-04-25T06:43:13.427Z,0.90
2019-04-25T06:44:16.392Z,1.10
2019-04-25T06:45:19.155Z,1.57
2019-04-25T06:46:22.975Z,0.77
2019-04-25T06:47:26.697Z,1.13
2019-04-25T06:48:30.363Z,0.93
2019-04-25T06:49:36.418Z,0.70
2019-04-25T06:50:37.484Z,1.17
2019-04-25T06:51:40.199Z,0.80
2019-04-25T06:52:43.893Z,0.93
2019-04-25T06:53:46.752Z,1.20
2019-04-25T06:54:49.472Z,0.90
2019-04-25T06:55:53.530Z,0.90
2019-04-25T06:56:56.350Z,1.03
2019-04-25T06:58:09.104Z,1.20
2019-04-25T06:59:03.638Z,1.10
2019-04-25T07:00:07.296Z,1.00
2019-04-25T07:01:10.043Z,1.07
2019-04-25T07:02:14.010Z,0.90
2019-04-25T07:03:16.878Z,0.80
2019-04-25T07:04:19.600Z,0.80
2019-04-25T07:05:30.773Z,0.80
2019-04-25T07:06:27.231Z,0.97
2019-04-25T07:07:29.980Z,0.97
2019-04-25T07:08:33.330Z,1.10
2019-04-25T07:09:37.707Z,1.20
2019-04-25T07:10:40.420Z,1.20
2019-04-25T07:11:43.968Z,1.03
2019-04-25T07:12:46.992Z,0.97
2019-04-25T07:13:49.715Z,0.90
2019-04-25T07:14:53.940Z,0.90
2019-04-25T07:15:56.768Z,1.00
2019-04-25T07:17:00.460Z,0.80
2019-04-25T07:18:03.782Z,0.93
2019-04-25T07:19:06.692Z,0.77
2019-04-25T07:20:13.706Z,0.83
2019-04-25T07:21:16.648Z,1.00
2019-04-25T07:22:19.375Z,1.03
2019-04-25T07:23:23.538Z,0.83
2019-04-25T07:24:27.248Z,1.17
2019-04-25T07:25:30.476Z,0.90
2019-04-25T07:26:37.101Z,0.97
2019-04-25T07:27:37.571Z,0.87
2019-04-25T07:28:40.284Z,1.00
2019-04-25T07:29:43.385Z,0.77
2019-04-25T07:30:51.933Z,1.00
2019-04-25T07:31:51.631Z,1.20
2019-04-25T07:32:54.343Z,0.90
2019-04-25T07:33:57.436Z,1.03
2019-04-25T07:35:00.148Z,0.60
2019-04-25T07:36:04.224Z,0.90
2019-04-25T07:37:07.116Z,0.80
2019-04-25T07:38:09.832Z,1.27
2019-04-25T07:39:13.443Z,0.80
2019-04-25T07:40:16.517Z,1.07
2019-04-25T07:41:19.235Z,1.03
2019-04-25T07:42:21.996Z,0.80
2019-04-25T07:43:25.820Z,0.90
2019-04-25T07:44:44.263Z,0.70
2019-04-25T07:45:34.567Z,0.77
2019-04-25T07:46:40.015Z,0.60
2019-04-25T07:47:43.918Z,1.00
2019-04-25T07:48:46.515Z,0.80
2019-04-25T07:49:49.558Z,1.00
2019-04-25T07:50:53.635Z,0.70
2019-04-25T07:51:56.399Z,0.90
2019-04-25T07:52:59.148Z,1.07
2019-04-25T07:54:02.213Z,0.90
2019-04-25T07:55:05.095Z,1.00
2019-04-25T07:56:07.813Z,1.23
2019-04-25T07:57:10.563Z,1.20
2019-04-25T07:58:14.340Z,0.90
2019-04-25T07:59:18.183Z,1.23
2019-04-25T08:00:20.828Z,0.90
2019-04-25T08:01:23.664Z,0.90
2019-04-25T08:02:27.944Z,0.87
2019-04-25T08:03:30.810Z,1.03
2019-04-25T08:04:35.758Z,0.90
2019-04-25T08:05:38.529Z,0.73
2019-04-25T08:06:41.248Z,1.10
2019-04-25T08:07:44.078Z,0.87
2019-04-25T08:08:46.789Z,1.20
2019-04-25T08:09:49.504Z,1.10
2019-04-25T08:10:55.479Z,1.43
2019-04-25T08:11:58.199Z,1.07
2019-04-25T08:13:00.958Z,1.10
2019-04-25T08:14:04.049Z,1.10
2019-04-25T08:15:07.135Z,1.13
2019-04-25T08:16:09.851Z,1.00
2019-04-25T08:17:14.393Z,1.20
2019-04-25T08:18:16.991Z,1.10
2019-04-25T08:19:19.736Z,1.03
2019-04-25T08:20:23.664Z,1.23
2019-04-25T08:21:26.455Z,0.80
2019-04-25T08:22:30.026Z,0.70
2019-04-25T08:23:36.674Z,0.97
2019-04-25T08:24:37.322Z,0.90
2019-04-25T08:25:40.680Z,1.00
2019-04-25T08:26:43.720Z,0.83
2019-04-25T08:27:46.617Z,0.80
2019-04-25T08:28:55.181Z,0.97
2019-04-25T08:29:54.250Z,0.90
2019-04-25T08:30:57.087Z,0.90
2019-04-25T08:31:59.821Z,1.00
2019-04-25T08:33:03.983Z,0.70
2019-04-25T08:34:06.913Z,0.80
2019-04-25T08:35:11.472Z,0.90
2019-04-25T08:36:14.187Z,0.80
2019-04-25T08:37:19.077Z,1.50
2019-04-25T08:38:21.280Z,0.67
2019-04-25T08:39:24.171Z,1.00
2019-04-25T08:40:27.025Z,0.67
2019-04-25T08:41:30.067Z,1.10
2019-04-25T08:42:35.415Z,0.90
2019-04-25T08:43:40.115Z,0.90
2019-04-25T08:44:43.757Z,0.87
2019-04-25T08:45:46.719Z,0.87
2019-04-25T08:46:49.448Z,0.80
2019-04-25T08:47:53.683Z,0.73
2019-04-25T08:48:56.619Z,0.77
2019-04-25T08:49:59.340Z,0.83
2019-04-25T08:51:03.551Z,0.73
2019-04-25T08:52:06.486Z,0.63
2019-04-25T08:53:09.243Z,0.70
2019-04-25T08:54:13.523Z,1.07
2019-04-25T08:55:16.376Z,0.73
2019-04-25T08:56:19.107Z,1.00
2019-04-25T08:57:21.819Z,0.80
2019-04-25T08:58:25.236Z,1.10
2019-04-25T08:59:37.350Z,1.10
2019-04-25T09:00:34.815Z,0.80
2019-04-25T09:01:39.422Z,0.87
2019-04-25T09:02:43.549Z,0.90
2019-04-25T09:03:45.918Z,1.20
2019-04-25T09:04:48.620Z,0.90
2019-04-25T09:05:51.376Z,0.60
2019-04-25T09:06:54.056Z,0.80
2019-04-25T09:07:56.775Z,0.80
2019-04-25T09:08:59.529Z,0.70
2019-04-25T09:10:03.570Z,0.70
2019-04-25T09:11:06.479Z,0.80
2019-04-25T09:12:09.200Z,1.00
2019-04-25T09:13:13.377Z,0.80
2019-04-25T09:14:16.291Z,0.97
2019-04-25T09:15:19.000Z,1.00
2019-04-25T09:16:21.719Z,1.10
2019-04-25T09:17:24.453Z,0.87
2019-04-25T09:18:27.183Z,0.80
2019-04-25T09:19:29.901Z,0.90
2019-04-25T09:20:34.683Z,0.90
2019-04-25T09:21:37.835Z,1.00
2019-04-25T09:22:40.577Z,0.60
2019-04-25T09:23:44.811Z,0.87
2019-04-25T09:24:47.671Z,0.60
2019-04-25T09:25:50.391Z,0.73
2019-04-25T09:26:54.084Z,1.00
2019-04-25T09:27:56.930Z,0.90
2019-04-25T09:28:59.671Z,0.70
2019-04-25T09:30:03.885Z,0.63
2019-04-25T09:31:07.042Z,0.80
2019-04-25T09:32:09.756Z,0.70
2019-04-25T09:33:13.265Z,0.77
2019-04-25T09:34:16.117Z,0.77
2019-04-25T09:35:20.157Z,0.97
2019-04-25T09:36:24.072Z,0.63
2019-04-25T09:37:26.876Z,0.80
2019-04-25T09:38:29.596Z,1.00
2019-04-25T09:39:33.738Z,0.77
2019-04-25T09:40:37.425Z,0.70
2019-04-25T09:41:40.303Z,1.37
2019-04-25T09:42:44.132Z,0.63
2019-04-25T09:43:47.372Z,1.10
2019-04-25T09:44:50.124Z,0.80
2019-04-25T09:45:53.263Z,0.90
2019-04-25T09:46:56.060Z,1.00
2019-04-25T09:47:58.784Z,0.90
2019-04-25T09:49:01.502Z,0.80
2019-04-25T09:50:04.920Z,0.90
2019-04-25T09:51:08.115Z,0.93
2019-04-25T09:52:10.939Z,1.00
2019-04-25T09:53:21.787Z,0.80
2019-04-25T09:54:18.124Z,0.87
2019-04-25T09:55:20.875Z,0.80
2019-04-25T09:56:23.941Z,0.57
2019-04-25T09:57:26.721Z,0.80
2019-04-25T09:58:29.752Z,0.90
2019-04-25T09:59:33.185Z,0.83
2019-04-25T10:00:38.068Z,0.90
2019-04-25T10:01:40.960Z,0.70
2019-04-25T10:02:44.578Z,0.70
2019-04-25T10:03:47.453Z,0.80
2019-04-25T10:04:50.480Z,0.60
2019-04-25T10:05:53.195Z,1.03
2019-04-25T10:06:55.920Z,0.83
2019-04-25T10:07:59.001Z,0.80
2019-04-25T10:09:01.719Z,0.60
2019-04-25T10:10:04.641Z,0.90
2019-04-25T10:11:07.360Z,0.60
2019-04-25T10:12:10.080Z,0.53
2019-04-25T10:13:12.919Z,0.80
2019-04-25T10:14:21.555Z,0.60
2019-04-25T10:15:44.428Z,0.60
2019-04-25T10:16:47.313Z,0.70
2019-04-25T10:17:51.054Z,0.70
2019-04-25T10:18:54.064Z,1.00
2019-04-25T10:19:56.784Z,0.60
2019-04-25T10:20:59.604Z,0.60
2019-04-25T10:22:03.438Z,0.60
2019-04-25T10:23:06.244Z,0.83
2019-04-25T10:24:09.252Z,0.60
2019-04-25T10:25:13.273Z,0.70
2019-04-25T10:26:16.036Z,0.77
2019-04-25T10:27:18.756Z,0.70
2019-04-25T10:28:21.481Z,0.67
2019-04-25T10:29:26.315Z,0.77
2019-04-25T10:30:29.016Z,0.57
2019-04-25T10:31:31.741Z,0.70
2019-04-25T10:32:34.463Z,0.80
2019-04-25T10:33:37.199Z,0.70
2019-04-25T10:34:40.322Z,0.90
2019-04-25T10:35:50.675Z,0.70
2019-04-25T10:36:48.944Z,0.70
2019-04-25T10:37:53.342Z,0.70
2019-04-25T10:39:07.217Z,0.90
2019-04-25T10:40:00.483Z,0.87
2019-04-25T10:41:04.265Z,1.03
2019-04-25T10:42:07.820Z,0.70
2019-04-25T10:43:10.537Z,0.80
2019-04-25T10:44:14.168Z,0.80
2019-04-25T10:45:23.223Z,0.70
2019-04-25T10:46:21.651Z,0.80
2019-04-25T10:47:24.399Z,0.50
2019-04-25T10:48:27.084Z,0.70
2019-04-25T10:49:29.800Z,0.90
2019-04-25T10:50:34.090Z,0.90
2019-04-25T10:51:37.015Z,0.70
2019-04-25T10:52:41.567Z,0.77
2019-04-25T10:53:45.997Z,0.80
2019-04-25T10:54:49.681Z,0.70
2019-04-25T10:55:52.384Z,0.70
2019-04-25T10:56:55.103Z,0.70
2019-04-25T10:57:57.819Z,0.60
2019-04-25T10:59:00.531Z,0.50
2019-04-25T11:00:09.451Z,0.70
2019-04-25T11:01:15.072Z,0.70
2019-04-25T11:02:16.164Z,0.70
2019-04-25T11:03:18.877Z,0.60
2019-04-25T11:04:21.596Z,0.97
2019-04-25T11:05:24.365Z,0.90
2019-04-25T11:06:27.117Z,0.87
2019-04-25T11:07:29.837Z,0.83
2019-04-25T11:08:33.999Z,0.70
2019-04-25T11:09:36.988Z,0.70
2019-04-25T11:10:40.535Z,0.50
2019-04-25T11:11:43.352Z,0.60
2019-04-25T11:12:47.168Z,0.83
2019-04-25T11:13:49.955Z,0.90
2019-04-25T11:14:53.309Z,0.73
2019-04-25T11:15:57.174Z,0.50
2019-04-25T11:16:59.963Z,0.77
2019-04-25T11:18:04.090Z,0.90
2019-04-25T11:19:07.039Z,0.67
2019-04-25T11:20:24.160Z,0.90
2019-04-25T11:21:26.915Z,0.60
2019-04-25T11:22:29.631Z,1.07
2019-04-25T11:23:32.352Z,0.70
2019-04-25T11:24:35.071Z,1.70
2019-04-25T11:25:37.788Z,1.30
2019-04-25T11:26:41.463Z,1.27
2019-04-25T11:27:47.038Z,1.33
2019-04-25T11:28:48.795Z,1.00
2019-04-25T11:29:53.246Z,1.00
2019-04-25T11:30:56.818Z,1.00
2019-04-25T11:31:59.800Z,0.73
2019-04-25T11:33:03.647Z,0.73
2019-04-25T11:34:06.864Z,0.90
2019-04-25T11:35:09.576Z,1.10
2019-04-25T11:36:13.351Z,1.00
2019-04-25T11:37:16.115Z,0.80
2019-04-25T11:38:18.835Z,0.80
2019-04-25T11:39:21.556Z,0.80
2019-04-25T11:40:24.283Z,0.70
2019-04-25T11:41:27.031Z,0.87
2019-04-25T11:42:29.757Z,0.90
2019-04-25T11:43:33.725Z,1.00
2019-04-25T11:44:37.107Z,1.00
2019-04-25T11:45:39.804Z,0.73
2019-04-25T11:46:44.482Z,0.80
2019-04-25T11:47:48.370Z,0.97
2019-04-25T11:48:51.192Z,0.63
2019-04-25T11:49:54.637Z,0.60
2019-04-25T11:50:58.363Z,0.90
2019-04-25T11:52:03.085Z,0.70
2019-04-25T11:53:05.724Z,0.80
2019-04-25T11:54:08.446Z,0.90
2019-04-25T11:55:11.160Z,0.60
2019-04-25T11:56:13.877Z,1.00
2019-04-25T11:57:16.647Z,0.80
2019-04-25T11:58:20.019Z,1.00
2019-04-25T11:59:23.515Z,0.70
2019-04-25T12:00:26.420Z,0.93
2019-04-25T12:01:29.204Z,0.90
2019-04-25T12:02:31.955Z,0.77
2019-04-25T12:03:35.012Z,1.03
2019-04-25T12:04:37.861Z,0.70
2019-04-25T12:05:40.605Z,1.20
2019-04-25T12:06:47.040Z,0.70
2019-04-25T12:07:48.011Z,0.87
2019-04-25T12:08:51.490Z,0.77
2019-04-25T12:09:55.579Z,0.90
2019-04-25T12:10:58.495Z,0.73
2019-04-25T12:12:01.356Z,0.90
2019-04-25T12:13:04.323Z,1.13
2019-04-25T12:14:08.124Z,1.00
2019-04-25T12:15:10.847Z,0.90
2019-04-25T12:16:14.423Z,0.80
2019-04-25T12:17:17.597Z,0.80
2019-04-25T12:18:20.308Z,0.60
2019-04-25T12:19:34.290Z,0.60
2019-04-25T12:20:27.484Z,0.60
2019-04-25T12:21:30.203Z,0.67
2019-04-25T12:22:34.321Z,0.50
2019-04-25T12:23:37.071Z,0.60
2019-04-25T12:24:39.791Z,0.90
2019-04-25T12:25:44.272Z,0.70
2019-04-25T12:26:47.725Z,0.80
2019-04-25T12:27:51.403Z,0.80
2019-04-25T12:28:56.422Z,0.80
2019-04-25T12:29:59.446Z,1.00
2019-04-25T12:31:02.327Z,1.07
2019-04-25T12:32:05.044Z,0.50
2019-04-25T12:33:18.318Z,0.83
2019-04-25T12:34:14.033Z,0.80
2019-04-25T12:35:16.631Z,0.63
2019-04-25T12:36:19.351Z,0.80
2019-04-25T12:37:23.252Z,0.83
2019-04-25T12:38:27.099Z,0.70
2019-04-25T12:39:29.825Z,0.90
2019-04-25T12:40:34.224Z,0.90
2019-04-25T12:41:36.882Z,0.80
2019-04-25T12:42:39.636Z,0.60
2019-04-25T12:43:43.891Z,0.80
2019-04-25T12:44:47.838Z,0.80
2019-04-25T12:45:51.249Z,0.60
2019-04-25T12:46:54.578Z,0.67
2019-04-25T12:47:59.369Z,0.87
2019-04-25T12:49:02.420Z,1.07
2019-04-25T12:50:05.143Z,0.77
2019-04-25T12:51:07.863Z,0.70
2019-04-25T12:52:10.575Z,0.67
2019-04-25T12:53:13.940Z,0.80
2019-04-25T12:54:17.138Z,0.57
2019-04-25T12:55:21.970Z,0.77
2019-04-25T12:56:24.790Z,0.70
2019-04-25T12:57:27.916Z,0.80
2019-04-25T12:58:30.659Z,0.73
2019-04-25T12:59:33.944Z,0.70
2019-04-25T13:00:47.497Z,0.80
2019-04-25T13:01:43.311Z,0.90
2019-04-25T13:02:46.210Z,0.70
2019-04-25T13:03:48.924Z,0.97
2019-04-25T13:04:51.640Z,0.97
2019-04-25T13:05:54.360Z,0.80
2019-04-25T13:06:57.867Z,0.87
2019-04-25T13:08:01.081Z,0.80
2019-04-25T13:09:05.506Z,0.97
2019-04-25T13:10:08.201Z,1.10
2019-04-25T13:11:10.920Z,0.90
2019-04-25T13:12:14.973Z,0.60
2019-04-25T13:13:18.007Z,0.80
2019-04-25T13:14:21.068Z,0.70
2019-04-25T13:15:26.640Z,0.70
2019-04-25T13:16:28.195Z,0.83
2019-04-25T13:17:31.221Z,0.80
2019-04-25T13:18:33.974Z,0.90
2019-04-25T13:19:36.686Z,0.90
2019-04-25T13:20:39.400Z,0.80
2019-04-25T13:21:43.287Z,0.70
2019-04-25T13:22:46.136Z,0.60
2019-04-25T13:23:48.889Z,0.83
2019-04-25T13:24:51.605Z,0.60
2019-04-25T13:25:55.807Z,0.80
2019-04-25T13:26:58.663Z,0.80
2019-04-25T13:28:03.374Z,0.70
2019-04-25T13:29:06.729Z,0.70
2019-04-25T13:30:09.475Z,0.80
2019-04-25T13:31:14.684Z,0.97
2019-04-25T13:32:16.550Z,0.83
2019-04-25T13:33:19.303Z,0.80
2019-04-25T13:34:34.126Z,0.80
2019-04-25T13:35:26.479Z,0.87
2019-04-25T13:36:29.206Z,0.90
2019-04-25T13:37:32.013Z,0.90
2019-04-25T13:38:34.766Z,1.03
2019-04-25T13:39:37.484Z,1.00
2019-04-25T13:40:40.478Z,1.03
2019-04-25T13:41:44.805Z,0.80
2019-04-25T13:42:47.689Z,0.83
2019-04-25T13:43:50.436Z,0.93
2019-04-25T13:44:54.295Z,1.00
2019-04-25T13:45:58.044Z,1.00
2019-04-25T13:47:00.757Z,0.80
2019-04-25T13:48:04.965Z,1.03
2019-04-25T13:49:07.791Z,0.60
2019-04-25T13:50:10.511Z,1.00
2019-04-25T13:51:14.170Z,0.87
2019-04-25T13:52:17.749Z,0.93
2019-04-25T13:53:20.877Z,0.90
2019-04-25T13:54:24.072Z,0.80
2019-04-25T13:55:27.763Z,1.00
2019-04-25T13:56:30.716Z,1.00
2019-04-25T13:57:33.500Z,0.80
2019-04-25T13:58:36.252Z,0.87
2019-04-25T13:59:38.974Z,0.90
2019-04-25T14:00:41.688Z,0.63
2019-04-25T14:01:44.404Z,0.90
2019-04-25T14:02:47.125Z,1.00
2019-04-25T14:03:49.995Z,1.07